< Cyclone 197307 1973 Season Cyclone 197309 >
Cyclone 197308 (LEAH)
General InformationTrack Information on Google Maps || ResourceGoogle EarthGE AnimationAtom FeedGeoJSON
Detalied Best Track (Time Zone = UTC)
Year Month Day Hour Lat. Long. Pressure (hPa) Wind (kt) Class Image Chart
1973 2 27 00 -11.0 139.3 996 0 0 -- --
1973 2 27 03 -11.2 139.3 996 0 0 -- --
1973 2 27 06 -11.4 139.3 996 0 0 -- --
1973 2 27 09 -11.6 139.2 996 0 0 -- --
1973 2 27 11 -11.8 139.1 996 0 0 -- --
1973 2 27 12 -11.8 139.1 996 0 0 -- --
1973 2 27 15 -11.9 139.1 996 0 0 -- --
1973 2 27 18 -12.0 139.1 996 0 0 -- --
1973 2 27 21 -12.0 139.0 996 0 0 -- --
1973 2 27 23 -12.2 138.8 995.5 0 0 -- --
1973 2 28 00 -12.2 138.8 995 0 0 -- --
1973 2 28 03 -12.2 138.7 995 0 0 -- --
1973 2 28 06 -12.9 138.1 994 0 0 -- --
1973 2 28 09 -13.2 137.4 994 0 0 -- --
1973 2 28 11 -13.4 137.1 994 0 0 -- --
1973 2 28 12 -13.4 137.1 994 0 0 -- --
1973 2 28 14 -13.8 136.6 994 0 0 -- --
1973 2 28 15 -13.8 136.6 994 0 0 -- --
1973 2 28 18 -13.9 136.0 996 0 0 -- --
1973 2 28 21 -13.9 135.5 999 0 0 -- --
1973 3 3 01 -13.1 125.2 1005 0 0 -- --
1973 3 3 04 -13.5 124.3 1005 0 0 -- --
1973 3 3 07 -13.9 123.3 1004 0 0 -- --
1973 3 3 10 -14.2 122.5 1004 0 0 -- --
1973 3 3 13 -14.2 121.7 1004 0 0 -- --
1973 3 3 16 -14.2 121.0 1005 0 0 -- --
1973 3 3 19 -14.0 120.1 1004 0 0 -- --
1973 3 3 22 -13.9 119.1 1004 0 0 -- --
1973 3 4 01 -13.9 117.7 1001 0 0 -- --
1973 3 4 04 -13.9 116.1 1000 0 0 -- --
1973 3 4 07 -14.4 114.5 999 0 0 -- --
1973 3 4 10 -14.7 113.0 998 0 0 -- --
1973 3 4 13 -14.9 112.1 996 0 0 -- --
1973 3 4 16 -15.1 111.2 994 0 0 -- --
1973 3 4 19 -15.3 110.5 995 0 0 -- --
1973 3 4 22 -15.7 109.6 990 0 0 -- --
1973 3 5 01 -16.1 109.0 985 0 0 -- --
1973 3 5 04 -16.3 108.6 980 0 0 -- --
1973 3 5 07 -16.7 108.2 975 0 0 -- --
1973 3 5 10 -17.1 107.8 975 0 0 -- --
1973 3 5 13 -17.4 107.8 974 0 0 -- --
1973 3 5 16 -17.7 107.2 973 0 0 -- --
1973 3 5 19 -17.9 106.6 973 0 0 -- --
1973 3 5 22 -18.2 106.0 973 0 0 -- --
1973 3 6 01 -18.4 105.5 973 0 0 -- --
1973 3 6 04 -18.6 104.9 975 0 0 -- --
1973 3 6 07 -18.7 104.1 980 0 0 -- --
1973 3 6 10 -18.9 103.5 983 0 0 -- --
1973 3 6 13 -18.9 103.0 985 0 0 -- --
1973 3 6 16 -19.0 102.5 986 0 0 -- --
1973 3 6 19 -19.2 102.0 988 0 0 -- --
1973 3 6 22 -19.3 101.5 990 0 0 -- --
1973 3 7 01 -19.4 101.0 992 0 0 -- --
1973 3 7 04 -19.5 100.7 994 0 0 -- --
1973 3 7 07 -19.8 100.4 995 0 0 -- --
1973 3 7 10 -19.9 100.3 996 0 0 -- --
1973 3 7 13 -20.2 100.1 1000 0 0 -- --
1973 3 7 16 -20.4 100.0 1000 0 0 -- --
1973 3 7 22 -20.6 99.5 1002 0 0 -- --
1973 3 8 01 -20.7 99.2 1004 0 0 -- --
1973 3 8 04 -20.8 99.1 1004 0 0 -- --
1973 3 8 07 -20.9 99.0 1004 0 0 -- --
1973 3 8 10 -21.1 98.7 1004 0 0 -- --
1973 3 8 13 -21.4 98.4 1004 0 0 -- --
1973 3 8 16 -21.5 98.2 1005 0 0 -- --
1973 3 8 19 -21.7 98.0 1006 0 0 -- --
1973 3 8 22 -21.8 97.8 1006 0 0 -- --
1973 3 9 01 -21.9 97.7 1006 0 0 -- --
1973 3 9 04 -21.9 97.6 1006 0 0 -- --
1973 3 9 07 -21.9 97.5 1006 0 0 -- --
1973 3 9 10 -21.9 97.5 1007 0 0 -- --
1973 3 9 13 -21.9 97.5 1008 0 0 -- --
1973 3 9 16 -21.9 97.5 1008 0 0 -- --
1973 3 9 19 -21.9 97.5 1008 0 0 -- --
1973 3 9 22 -21.9 97.4 1009 0 0 -- --
1973 3 10 01 -21.9 97.2 1010 0 0 -- --
1973 3 10 04 -21.9 96.9 1011 0 0 -- --
1973 3 10 07 -21.9 96.3 1011 0 0 -- --
1973 3 10 10 -21.9 95.5 1011 0 0 -- --
1973 3 10 13 -21.9 94.7 1011 0 0 -- --
1973 3 10 16 -21.8 94.1 1011 0 0 -- --
1973 3 10 19 -21.3 93.3 1011 0 0 -- --
1973 3 10 22 -20.8 91.5 1011 0 0 -- --
1973 3 11 01 -20.2 89.9 1012 0 0 -- --
< Cyclone 197307 1973 Season Cyclone 197309 >

Help